Airfield :
LOGIN :

Register | Disclaimer

   EN    FR    IT 

 










Legend :    VFR   Marginal VFR   IFR   Intensive IFR   Very Intensive IFR
Visi :
Ceiling :
>= 8 km
>= 3000ft
5 to 8 km
1000 to 3000 ft
1500m to 5 km
500 to 1000 ft
800 to 1500m
200 to 500 ft
< 800m
< 200 ft
Symbols :   Thunderstorms  Fog  Heavy snow  Heavy precipitations  Wind > 20 kt
SIGMETs :     Misc.  Thunderstorms  Icing  Turbulence  Mountain Waves  Volcanic Ashes






- Airport Elevation : 203 ft
- IATA code : XMJ


LFBM - Mont-De-Marsan

CURRENT METAR :
  • 091830Z AUTO 26009KT 9999 NSC 09/07 Q1029 NOSIG

EXPIRED METARs :
  • 091800Z AUTO 27009KT 9999 FEW033 SCT042 BKN064 09/07 Q1028 NOSIG
  • 091730Z AUTO 27009KT 9999 BKN035 BKN068 09/07 Q1028 NOSIG
  • 091700Z AUTO 27010KT CAVOK 10/07 Q1027 NOSIG
  • 091630Z AUTO 28010KT 9999 BKN032 BKN040 BKN049 11/06 Q1027 NOSIG
  • 091600Z AUTO 28009KT 9999 FEW033 SCT039 OVC072 11/06 Q1027 TEMPO 28015G25KT BKN020 BKN030TCU BKN060

TAF TAF LFBM
Valid from the 09 at 15:00 until the 10 at 15:00 UTC


091400Z 0915/1015 28015G25KT 9999 SCT035TCU BKN060
TEMPO 0915/0917 -SHRA BKN020 BKN030TCU BKN060
BECMG 0917/0919 28010KT BKN030



MET'MAP, your aeronautical weather chart ! - Copyright ORBIFLY December 2007 - Disclaimer

ORBIFLY MET'MAP TEAM :

Programming & Development : Alexandra Zaïnal
Concept & original design : Baudouin d'Aumeries
Assistance for programming : Marc-Olivier Méhu
Technical & hardware support : Manuel Goepfert

Contact : metmap@orbifly.com




SOURCES & CREDITS :

   NOAA